createdAt,value
2023-02-07T00:02:27.647Z,88.47
2023-02-07T00:05:02.291Z,88.74
2023-02-07T00:07:35.330Z,89.53
2023-02-07T00:10:10.306Z,87.91
2023-02-07T00:12:43.521Z,89.04
2023-02-07T00:15:16.658Z,87.41
2023-02-07T00:17:49.733Z,89.62
2023-02-07T00:20:25.180Z,89.56
2023-02-07T00:22:58.245Z,89.56
2023-02-07T00:25:31.314Z,91.19
2023-02-07T00:28:04.750Z,91.48
2023-02-07T00:30:37.952Z,90.44
2023-02-07T00:33:11.062Z,91.41
2023-02-07T00:35:45.578Z,91.95
2023-02-07T00:38:18.558Z,92.48
2023-02-07T00:40:51.578Z,93.38
2023-02-07T00:43:29.824Z,94.22
2023-02-07T00:46:05.502Z,93.88
2023-02-07T00:48:40.225Z,93.38
2023-02-07T00:51:15.741Z,93.87
2023-02-07T00:53:49.015Z,93.59
2023-02-07T00:56:22.896Z,94.20
2023-02-07T00:58:56.010Z,94.60
2023-02-07T01:01:29.241Z,94.97
2023-02-07T01:04:02.706Z,95.29
2023-02-07T01:06:37.162Z,92.83
2023-02-07T01:09:11.375Z,90.43
2023-02-07T01:11:44.429Z,90.64
2023-02-07T01:14:17.527Z,92.08
2023-02-07T01:16:50.637Z,91.77
2023-02-07T01:19:23.753Z,93.33
2023-02-07T01:21:59.834Z,92.84
2023-02-07T01:24:35.212Z,94.32
2023-02-07T01:27:08.449Z,93.16
2023-02-07T01:29:41.685Z,94.20
2023-02-07T01:32:14.717Z,93.34
2023-02-07T01:34:47.817Z,93.79
2023-02-07T01:37:22.294Z,94.30
2023-02-07T01:39:55.906Z,95.12
2023-02-07T01:42:30.102Z,95.38
2023-02-07T01:45:14.295Z,94.18
2023-02-07T01:47:47.626Z,94.94
2023-02-07T01:50:21.462Z,94.49
2023-02-07T01:52:56.712Z,94.06
2023-02-07T01:55:35.295Z,95.13
2023-02-07T01:58:09.337Z,92.83
2023-02-07T02:00:42.598Z,93.50
2023-02-07T02:03:16.188Z,94.03
2023-02-07T02:05:54.308Z,90.88
2023-02-07T02:08:29.083Z,92.04
2023-02-07T02:11:23.476Z,91.67
2023-02-07T02:14:06.155Z,92.56
2023-02-07T02:16:44.371Z,92.57
2023-02-07T02:19:51.348Z,92.49
2023-02-07T02:23:00.355Z,91.48
2023-02-07T02:26:31.179Z,91.43
2023-02-07T02:30:00.639Z,91.22
2023-02-07T02:33:26.774Z,91.81
2023-02-07T02:36:11.976Z,91.08
2023-02-07T02:38:52.025Z,91.37
2023-02-07T02:41:30.890Z,90.53
2023-02-07T02:44:10.002Z,92.47
2023-02-07T02:46:44.032Z,92.69
2023-02-07T02:49:19.678Z,93.39
2023-02-07T02:51:53.427Z,93.24
2023-02-07T02:54:30.039Z,93.05
2023-02-07T02:57:33.469Z,92.14
2023-02-07T03:00:31.289Z,92.18
2023-02-07T03:03:19.410Z,90.74
2023-02-07T03:06:08.267Z,89.95
2023-02-07T03:08:47.509Z,90.29
2023-02-07T03:11:23.608Z,91.96
2023-02-07T03:14:04.598Z,92.20
2023-02-07T03:16:55.673Z,91.53
2023-02-07T03:19:34.676Z,90.87
2023-02-07T03:22:13.802Z,91.73
2023-02-07T03:24:52.628Z,91.84
2023-02-07T03:27:29.200Z,92.48
2023-02-07T03:30:07.802Z,92.05
2023-02-07T03:32:45.375Z,92.06
2023-02-07T03:35:25.307Z,92.32
2023-02-07T03:38:02.458Z,91.23
2023-02-07T03:40:42.260Z,91.31
2023-02-07T03:43:19.666Z,90.56
2023-02-07T03:45:52.868Z,90.97
2023-02-07T03:48:26.525Z,88.80
2023-02-07T03:50:59.667Z,88.40
2023-02-07T03:53:34.170Z,88.10
2023-02-07T03:56:08.186Z,87.14
2023-02-07T03:58:41.200Z,88.16
2023-02-07T04:01:14.252Z,87.59
2023-02-07T04:03:47.324Z,88.35
2023-02-07T04:06:20.708Z,87.32
2023-02-07T04:08:55.104Z,87.15
2023-02-07T04:11:28.165Z,85.79
2023-02-07T04:14:01.321Z,85.72
2023-02-07T04:16:34.430Z,86.10
2023-02-07T04:19:07.538Z,85.49
2023-02-07T04:21:40.763Z,84.06
2023-02-07T04:24:15.556Z,84.78
2023-02-07T04:26:48.636Z,83.91
2023-02-07T04:29:21.947Z,84.61
2023-02-07T04:31:55.957Z,84.70
2023-02-07T04:34:30.583Z,86.98
2023-02-07T04:37:03.800Z,87.53
2023-02-07T04:39:38.142Z,87.12
2023-02-07T04:42:11.269Z,89.19
2023-02-07T04:44:44.312Z,88.81
2023-02-07T04:47:17.331Z,87.08
2023-02-07T04:49:50.493Z,85.86
2023-02-07T04:52:23.694Z,87.00
2023-02-07T04:54:58.171Z,87.68
2023-02-07T04:57:31.278Z,86.74
2023-02-07T05:00:05.649Z,85.36
2023-02-07T05:02:39.006Z,85.11
2023-02-07T05:05:12.253Z,86.29
2023-02-07T05:07:45.733Z,86.69
2023-02-07T05:10:20.348Z,84.92
2023-02-07T05:12:54.480Z,84.45
2023-02-07T05:15:27.552Z,83.32
2023-02-07T05:18:01.228Z,82.97
2023-02-07T05:20:34.291Z,81.83
2023-02-07T05:23:07.316Z,82.38
2023-02-07T05:25:43.107Z,82.17
2023-02-07T05:28:16.693Z,82.64
2023-02-07T05:30:50.055Z,82.81
2023-02-07T05:33:22.221Z,84.25
2023-02-07T05:35:55.333Z,81.27
2023-02-07T05:38:28.535Z,82.30
2023-02-07T05:41:02.949Z,81.38
2023-02-07T05:43:35.971Z,83.48
2023-02-07T05:46:09.144Z,85.10
2023-02-07T05:48:42.490Z,87.08
2023-02-07T05:51:15.516Z,87.62
2023-02-07T05:53:48.566Z,88.62
2023-02-07T05:56:23.268Z,88.14
2023-02-07T05:58:56.277Z,88.47
2023-02-07T06:01:29.333Z,90.09
2023-02-07T06:04:02.419Z,89.92
2023-02-07T06:06:35.517Z,87.84
2023-02-07T06:09:08.648Z,88.20
2023-02-07T06:11:43.200Z,88.66
2023-02-07T06:14:17.499Z,88.28
2023-02-07T06:16:50.525Z,89.15
2023-02-07T06:19:23.599Z,88.85
2023-02-07T06:22:00.514Z,90.60
2023-02-07T06:24:33.607Z,89.85
2023-02-07T06:27:08.295Z,90.09
2023-02-07T06:29:41.434Z,90.81
2023-02-07T06:32:14.459Z,91.58
2023-02-07T06:34:47.532Z,91.10
2023-02-07T06:37:20.697Z,90.51
2023-02-07T06:39:53.744Z,88.80
2023-02-07T06:42:28.101Z,88.40
2023-02-07T06:45:01.135Z,90.08
2023-02-07T06:47:34.211Z,90.86
2023-02-07T06:50:09.221Z,91.68
2023-02-07T06:52:42.305Z,90.80
2023-02-07T06:55:15.594Z,91.64
2023-02-07T06:57:50.048Z,91.51
2023-02-07T07:00:23.379Z,91.17
2023-02-07T07:02:56.567Z,91.20
2023-02-07T07:05:30.278Z,91.50
2023-02-07T07:08:03.727Z,91.38
2023-02-07T07:10:36.939Z,91.82
2023-02-07T07:13:11.475Z,88.82
2023-02-07T07:15:44.678Z,88.84
2023-02-07T07:18:17.803Z,89.83
2023-02-07T07:20:54.300Z,88.91
2023-02-07T07:23:27.520Z,89.56
2023-02-07T07:26:00.585Z,90.11
2023-02-07T07:28:35.057Z,88.15
2023-02-07T07:31:09.777Z,88.21
2023-02-07T07:33:43.043Z,88.61
2023-02-07T07:36:16.269Z,88.79
2023-02-07T07:38:50.161Z,86.23
2023-02-07T07:41:23.721Z,83.83
2023-02-07T07:43:58.167Z,83.53
2023-02-07T07:46:31.320Z,84.63
2023-02-07T07:49:04.377Z,82.63
2023-02-07T07:51:37.775Z,80.61
2023-02-07T07:54:10.827Z,80.59
2023-02-07T07:56:43.936Z,79.21
2023-02-07T07:59:24.006Z,81.15
2023-02-07T08:01:57.467Z,78.28
2023-02-07T08:04:30.537Z,77.64
2023-02-07T08:07:03.695Z,78.34
2023-02-07T08:09:36.810Z,78.45
2023-02-07T08:12:09.848Z,77.33
2023-02-07T08:14:44.270Z,78.02
2023-02-07T08:17:17.340Z,79.24
2023-02-07T08:19:50.357Z,78.39
2023-02-07T08:22:23.394Z,77.05
2023-02-07T08:24:56.549Z,74.23
2023-02-07T08:27:29.651Z,74.87
2023-02-07T08:30:04.799Z,74.92
2023-02-07T08:32:39.614Z,72.77
2023-02-07T08:35:12.890Z,72.80
2023-02-07T08:37:45.966Z,73.63
2023-02-07T08:40:19.646Z,74.61
2023-02-07T08:42:52.848Z,73.77
2023-02-07T08:45:27.501Z,73.33
2023-02-07T08:48:00.670Z,73.85
2023-02-07T08:50:33.728Z,73.93
2023-02-07T08:53:06.920Z,73.25
2023-02-07T08:55:42.178Z,72.57
2023-02-07T08:58:15.756Z,71.63
2023-02-07T09:00:50.334Z,73.00
2023-02-07T09:03:23.582Z,70.25
2023-02-07T09:06:00.004Z,68.54
2023-02-07T09:08:33.495Z,70.15
2023-02-07T09:11:09.897Z,71.58
2023-02-07T09:13:45.337Z,70.44
2023-02-07T09:16:19.820Z,70.80
2023-02-07T09:18:53.400Z,70.56
2023-02-07T09:21:26.526Z,69.38
2023-02-07T09:23:59.536Z,67.09
2023-02-07T09:26:34.391Z,68.70
2023-02-07T09:29:10.174Z,67.96
2023-02-07T09:31:46.304Z,68.85
2023-02-07T09:34:19.667Z,70.50
2023-02-07T09:36:53.052Z,70.33
2023-02-07T09:39:26.915Z,67.65
2023-02-07T09:42:12.636Z,69.53
2023-02-07T09:44:56.972Z,67.76
2023-02-07T09:47:33.595Z,66.27
2023-02-07T09:50:13.617Z,69.28
2023-02-07T09:52:51.219Z,68.19
2023-02-07T09:55:27.221Z,68.33
2023-02-07T09:58:09.013Z,66.43
2023-02-07T10:00:43.693Z,67.89
2023-02-07T10:03:21.644Z,66.50
2023-02-07T10:06:09.315Z,66.92
2023-02-07T10:08:55.778Z,67.21
2023-02-07T10:11:43.983Z,62.90
2023-02-07T10:14:38.859Z,64.39
2023-02-07T10:17:34.773Z,66.07
2023-02-07T10:20:29.644Z,63.79
2023-02-07T10:23:23.215Z,65.09
2023-02-07T10:26:09.853Z,64.48
2023-02-07T10:29:07.842Z,64.05
2023-02-07T10:31:48.562Z,63.66
2023-02-07T10:34:25.470Z,62.79
2023-02-07T10:36:59.957Z,61.98
2023-02-07T10:39:38.486Z,62.30
2023-02-07T10:42:16.548Z,62.24
2023-02-07T10:44:49.553Z,61.66
2023-02-07T10:47:23.337Z,61.36
2023-02-07T10:49:58.418Z,61.22
2023-02-07T10:52:38.012Z,61.26
2023-02-07T10:55:15.254Z,62.44
2023-02-07T10:58:02.805Z,62.74
2023-02-07T11:00:40.877Z,60.90
2023-02-07T11:03:16.040Z,58.02
2023-02-07T11:05:59.360Z,56.34
2023-02-07T11:08:36.033Z,56.56
2023-02-07T11:11:32.582Z,57.74
2023-02-07T11:14:07.903Z,58.18
2023-02-07T11:16:45.692Z,57.38
2023-02-07T11:19:24.476Z,56.88
2023-02-07T11:22:11.409Z,57.59
2023-02-07T11:24:47.458Z,57.14
2023-02-07T11:27:22.752Z,56.71
2023-02-07T11:29:59.005Z,56.80
2023-02-07T11:32:32.409Z,56.56
2023-02-07T11:35:09.536Z,56.69
2023-02-07T11:37:51.040Z,57.29
2023-02-07T11:40:30.140Z,56.84
2023-02-07T11:43:12.166Z,56.78
2023-02-07T11:45:48.510Z,57.50
2023-02-07T11:48:27.242Z,56.62
2023-02-07T11:51:04.302Z,56.54
2023-02-07T11:53:41.654Z,57.05
2023-02-07T11:56:26.716Z,56.14
2023-02-07T11:59:00.810Z,55.88
2023-02-07T12:01:35.791Z,56.09
2023-02-07T12:04:13.294Z,57.08
2023-02-07T12:06:53.675Z,57.04
2023-02-07T12:09:35.486Z,57.88
2023-02-07T12:12:19.280Z,56.45
2023-02-07T12:14:56.653Z,56.28
2023-02-07T12:17:41.015Z,54.82
2023-02-07T12:20:23.571Z,55.62
2023-02-07T12:23:21.749Z,55.95
2023-02-07T12:26:03.038Z,54.69
2023-02-07T12:28:45.086Z,56.21
2023-02-07T12:31:26.140Z,56.16
2023-02-07T12:34:05.389Z,56.42
2023-02-07T12:36:44.763Z,55.87
2023-02-07T12:39:26.737Z,56.71
2023-02-07T12:42:19.470Z,54.61
2023-02-07T12:44:59.097Z,54.78
2023-02-07T12:47:53.561Z,55.00
2023-02-07T12:50:44.998Z,54.39
2023-02-07T12:53:38.181Z,54.24
2023-02-07T12:56:28.589Z,54.44
2023-02-07T12:59:17.098Z,52.32
2023-02-07T13:02:05.559Z,54.02
2023-02-07T13:05:31.937Z,53.43
2023-02-07T13:08:17.837Z,52.46
2023-02-07T13:11:02.648Z,52.58
2023-02-07T13:13:49.318Z,53.27
2023-02-07T13:16:32.540Z,51.59
2023-02-07T13:19:19.963Z,51.24
2023-02-07T13:22:00.036Z,51.65
2023-02-07T13:24:36.608Z,49.81
2023-02-07T13:27:17.666Z,50.88
2023-02-07T13:29:52.388Z,50.54
2023-02-07T13:32:28.530Z,51.79
2023-02-07T13:35:07.552Z,50.77
2023-02-07T13:37:51.616Z,47.39
2023-02-07T13:40:35.658Z,48.77
2023-02-07T13:43:17.352Z,48.64
2023-02-07T13:45:59.224Z,49.87
2023-02-07T13:48:42.111Z,48.07
2023-02-07T13:51:24.365Z,48.98
2023-02-07T13:54:09.775Z,49.00
2023-02-07T13:57:16.056Z,49.27
2023-02-07T14:00:18.690Z,48.60
2023-02-07T14:02:54.526Z,47.98
2023-02-07T14:05:31.987Z,47.72
2023-02-07T14:08:24.792Z,48.75
2023-02-07T14:10:59.025Z,49.05
2023-02-07T14:13:35.096Z,48.27
2023-02-07T14:16:11.922Z,49.79
2023-02-07T14:18:51.274Z,49.89
2023-02-07T14:21:42.677Z,50.37
2023-02-07T14:24:33.150Z,50.62
2023-02-07T14:27:29.437Z,50.96
2023-02-07T14:30:28.610Z,51.09
2023-02-07T14:33:15.644Z,50.44
2023-02-07T14:36:21.453Z,50.95
2023-02-07T14:39:31.191Z,51.20
2023-02-07T14:42:14.026Z,50.84
2023-02-07T14:44:49.892Z,50.96
2023-02-07T14:47:27.361Z,51.37
2023-02-07T14:50:02.116Z,51.37
2023-02-07T14:52:39.870Z,51.69
2023-02-07T14:55:19.598Z,51.61
2023-02-07T14:57:58.639Z,52.35
2023-02-07T15:00:36.722Z,52.80
2023-02-07T15:03:14.947Z,53.24
2023-02-07T15:05:53.669Z,52.99
2023-02-07T15:08:30.321Z,54.58
2023-02-07T15:11:07.424Z,53.74
2023-02-07T15:13:45.286Z,52.64
2023-02-07T15:16:21.221Z,53.10
2023-02-07T15:18:57.971Z,54.07
2023-02-07T15:21:35.500Z,54.16
2023-02-07T15:24:16.792Z,54.97
2023-02-07T15:26:55.871Z,54.11
2023-02-07T15:29:32.119Z,54.58
2023-02-07T15:32:22.171Z,54.73
2023-02-07T15:34:56.308Z,54.90
2023-02-07T15:37:29.546Z,55.80
2023-02-07T15:40:02.777Z,55.69
2023-02-07T15:42:37.235Z,56.27
2023-02-07T15:45:29.753Z,55.75
2023-02-07T15:48:07.728Z,55.23
2023-02-07T15:50:41.493Z,55.60
2023-02-07T15:53:23.679Z,55.87
2023-02-07T15:55:57.145Z,56.38
2023-02-07T15:58:36.106Z,55.47
2023-02-07T16:01:17.825Z,56.25
2023-02-07T16:03:51.967Z,55.80
2023-02-07T16:06:27.540Z,56.49
2023-02-07T16:09:03.050Z,56.37
2023-02-07T16:11:41.326Z,55.69
2023-02-07T16:14:25.743Z,56.62
2023-02-07T16:17:00.038Z,56.40
2023-02-07T16:19:34.111Z,56.77
2023-02-07T16:22:13.320Z,56.89
2023-02-07T16:24:49.526Z,57.68
2023-02-07T16:27:30.210Z,58.18
2023-02-07T16:30:05.650Z,58.26
2023-02-07T16:32:38.712Z,58.24
2023-02-07T16:35:23.518Z,58.84
2023-02-07T16:37:56.791Z,58.96
2023-02-07T16:40:30.283Z,59.31
2023-02-07T16:43:06.735Z,60.49
2023-02-07T16:45:41.493Z,60.15
2023-02-07T16:48:16.243Z,59.91
2023-02-07T16:50:49.281Z,60.04
2023-02-07T16:53:22.328Z,60.94
2023-02-07T16:55:57.296Z,62.10
2023-02-07T16:58:33.126Z,62.19
2023-02-07T17:01:07.948Z,63.00
2023-02-07T17:03:41.412Z,63.06
2023-02-07T17:06:15.969Z,62.94
2023-02-07T17:08:51.051Z,63.13
2023-02-07T17:11:26.479Z,63.84
2023-02-07T17:14:00.381Z,64.21
2023-02-07T17:16:34.901Z,65.12
2023-02-07T17:19:13.317Z,65.18
2023-02-07T17:21:46.987Z,65.14
2023-02-07T17:24:20.410Z,65.94
2023-02-07T17:26:55.104Z,65.85
2023-02-07T17:29:28.230Z,66.32
2023-02-07T17:32:02.770Z,68.58
2023-02-07T17:34:35.830Z,67.83
2023-02-07T17:37:16.501Z,67.53
2023-02-07T17:39:54.615Z,68.93
2023-02-07T17:42:27.836Z,67.74
2023-02-07T17:45:00.890Z,68.52
2023-02-07T17:47:35.501Z,69.28
2023-02-07T17:50:11.355Z,69.15
2023-02-07T17:52:44.594Z,69.56
2023-02-07T17:55:18.708Z,69.13
2023-02-07T17:57:52.271Z,69.43
2023-02-07T18:00:31.190Z,69.48
2023-02-07T18:03:12.502Z,68.82
2023-02-07T18:05:45.600Z,68.47
2023-02-07T18:08:19.035Z,70.06
2023-02-07T18:10:52.551Z,70.73
2023-02-07T18:13:25.897Z,69.95
2023-02-07T18:15:59.215Z,71.45
2023-02-07T18:18:33.656Z,72.86
2023-02-07T18:21:07.183Z,72.25
2023-02-07T18:23:40.363Z,72.69
2023-02-07T18:26:15.527Z,73.14
2023-02-07T18:28:48.970Z,74.10
2023-02-07T18:31:25.153Z,73.89
2023-02-07T18:33:59.604Z,75.71
2023-02-07T18:36:40.048Z,75.21
2023-02-07T18:39:14.463Z,75.22
2023-02-07T18:41:47.681Z,75.57
2023-02-07T18:44:20.845Z,75.63
2023-02-07T18:46:54.275Z,76.25
2023-02-07T18:49:28.974Z,75.33
2023-02-07T18:52:02.569Z,75.24
2023-02-07T18:54:36.295Z,74.48
2023-02-07T18:57:09.589Z,76.02
2023-02-07T18:59:42.815Z,76.52
2023-02-07T19:02:15.861Z,76.15
2023-02-07T19:04:50.638Z,76.33
2023-02-07T19:07:23.710Z,76.56
2023-02-07T19:09:56.775Z,76.51
2023-02-07T19:12:29.949Z,76.17
2023-02-07T19:15:03.003Z,76.82
2023-02-07T19:17:36.913Z,76.98
2023-02-07T19:20:12.701Z,77.07
2023-02-07T19:22:46.788Z,78.04
2023-02-07T19:25:19.896Z,77.75
2023-02-07T19:27:52.921Z,77.55
2023-02-07T19:30:26.306Z,77.64
2023-02-07T19:32:59.475Z,77.54
2023-02-07T19:35:35.774Z,78.84
2023-02-07T19:38:09.138Z,77.53
2023-02-07T19:40:42.447Z,79.01
2023-02-07T19:43:15.794Z,78.20
2023-02-07T19:45:49.864Z,78.19
2023-02-07T19:48:23.900Z,79.58
2023-02-07T19:51:02.909Z,78.38
2023-02-07T19:53:36.947Z,80.52
2023-02-07T19:56:11.267Z,80.86
2023-02-07T19:58:47.652Z,80.16
2023-02-07T20:01:22.170Z,79.45
2023-02-07T20:03:56.909Z,80.29
2023-02-07T20:06:34.152Z,80.64
2023-02-07T20:09:09.624Z,81.12
2023-02-07T20:11:42.656Z,79.58
2023-02-07T20:14:15.751Z,80.29
2023-02-07T20:16:49.323Z,80.10
2023-02-07T20:19:22.361Z,80.40
2023-02-07T20:21:57.135Z,80.97
2023-02-07T20:24:30.397Z,80.93
2023-02-07T20:27:03.660Z,81.63
2023-02-07T20:29:36.731Z,82.54
2023-02-07T20:32:12.741Z,82.64
2023-02-07T20:34:46.048Z,84.16
2023-02-07T20:37:20.505Z,84.69
2023-02-07T20:39:53.563Z,84.88
2023-02-07T20:42:26.643Z,85.45
2023-02-07T20:45:00.056Z,86.53
2023-02-07T20:47:33.125Z,86.98
2023-02-07T20:50:07.972Z,86.98
2023-02-07T20:52:42.336Z,86.83
2023-02-07T20:55:15.747Z,87.31
2023-02-07T20:57:49.368Z,88.11
2023-02-07T21:00:22.666Z,87.26
2023-02-07T21:02:55.718Z,88.68
2023-02-07T21:05:28.734Z,87.83
2023-02-07T21:08:03.532Z,88.76
2023-02-07T21:10:37.146Z,88.02
2023-02-07T21:13:10.228Z,87.88
2023-02-07T21:15:49.832Z,87.35
2023-02-07T21:18:28.605Z,88.85
2023-02-07T21:21:03.519Z,88.45
2023-02-07T21:23:38.657Z,88.69
2023-02-07T21:26:14.906Z,89.06
2023-02-07T21:28:48.703Z,89.79
2023-02-07T21:31:23.214Z,89.40
2023-02-07T21:33:57.173Z,89.43
2023-02-07T21:36:32.499Z,89.60
2023-02-07T21:39:12.027Z,89.52
2023-02-07T21:41:46.859Z,90.47
2023-02-07T21:44:21.282Z,89.95
2023-02-07T21:46:54.360Z,90.81
2023-02-07T21:49:27.488Z,90.73
2023-02-07T21:52:00.955Z,89.40
2023-02-07T21:54:35.708Z,89.58
2023-02-07T21:57:08.745Z,89.53
2023-02-07T21:59:42.525Z,90.82
2023-02-07T22:02:15.820Z,90.72
2023-02-07T22:04:48.834Z,91.46
2023-02-07T22:07:21.863Z,92.46
2023-02-07T22:09:56.310Z,90.26
2023-02-07T22:12:29.424Z,88.56
2023-02-07T22:15:02.533Z,87.90
2023-02-07T22:17:35.620Z,89.09
2023-02-07T22:20:10.391Z,88.66
2023-02-07T22:22:43.477Z,88.08
2023-02-07T22:25:18.263Z,90.01
2023-02-07T22:27:51.628Z,90.04
2023-02-07T22:30:25.110Z,89.27
2023-02-07T22:32:58.222Z,90.43
2023-02-07T22:35:31.266Z,91.20
2023-02-07T22:38:04.883Z,90.71
2023-02-07T22:40:41.280Z,91.59
2023-02-07T22:43:17.182Z,91.95
2023-02-07T22:45:50.377Z,91.12
2023-02-07T22:48:23.396Z,91.90
2023-02-07T22:50:56.403Z,92.42
2023-02-07T22:53:29.417Z,91.54
2023-02-07T22:56:03.980Z,92.56
2023-02-07T22:58:37.948Z,91.80
2023-02-07T23:01:21.789Z,91.71
2023-02-07T23:03:55.572Z,92.06
2023-02-07T23:06:28.940Z,92.53
2023-02-07T23:09:02.500Z,92.34
2023-02-07T23:11:37.875Z,92.37
2023-02-07T23:14:10.969Z,92.82
2023-02-07T23:16:44.602Z,93.04
2023-02-07T23:19:19.090Z,92.86
2023-02-07T23:21:52.133Z,92.90
2023-02-07T23:24:25.191Z,93.41
2023-02-07T23:26:59.931Z,92.58
2023-02-07T23:29:32.975Z,93.60
2023-02-07T23:32:06.381Z,93.74
2023-02-07T23:34:39.445Z,93.46
2023-02-07T23:37:12.596Z,94.07
2023-02-07T23:39:45.622Z,93.32
2023-02-07T23:42:20.088Z,93.83
2023-02-07T23:44:53.387Z,93.01
2023-02-07T23:47:26.598Z,93.70
2023-02-07T23:49:59.717Z,93.73
2023-02-07T23:52:32.803Z,93.43
2023-02-07T23:55:07.217Z,93.86
2023-02-07T23:57:41.846Z,93.59
